Time;durP1;ratioP1;P1;durP2;ratioP2;P2;SDS_P1;SDS_P2;PMS_P1;PMS_P2;Temp;Humidity;BMP_temperature;BMP_pressure;BME280_temperature;BME280_humidity;BME280_pressure;Samples;Min_cycle;Max_cycle;Signal;HPM_P1;HPM_P2
2021/12/22 20:09:22;;;;;;;30.90;9.27;;;;;;;-0.30;100.00;99810.13;5062314;28;21135;-62
2021/12/22 20:12:08;;;;;;;33.70;12.07;;;;;;;-0.30;95.09;99807.53;5055069;28;20353;-64
2021/12/22 20:14:53;;;;;;;30.63;10.75;;;;;;;0.31;100.00;99798.44;5069385;28;20067;-63
2021/12/22 20:17:40;;;;;;;29.80;11.10;;;;;;;0.58;100.00;99801.59;5074753;28;20071;-62
2021/12/22 20:20:26;;;;;;;29.85;11.77;;;;;;;0.41;98.01;99792.31;5070236;28;20052;-61
2021/12/22 20:23:12;;;;;;;34.03;10.73;;;;;;;0.26;93.07;99802.78;5070246;28;20055;-62
2021/12/22 20:25:58;;;;;;;28.67;13.55;;;;;;;0.04;95.28;99805.53;5069919;28;20060;-62
2021/12/22 20:28:45;;;;;;;26.75;13.98;;;;;;;0.08;96.76;99805.50;5069100;28;20048;-61
2021/12/22 20:31:31;;;;;;;27.98;13.18;;;;;;;-0.25;91.98;99815.22;5054461;28;20491;-61
2021/12/22 20:34:18;;;;;;;32.65;13.07;;;;;;;-0.64;93.26;99803.44;5049052;28;20044;-63
2021/12/22 20:37:05;;;;;;;29.20;13.93;;;;;;;-0.93;90.81;99806.19;5050379;28;20511;-63
2021/12/22 20:39:52;;;;;;;28.02;12.95;;;;;;;-0.88;94.70;99807.00;5048797;28;20052;-61
2021/12/22 20:42:37;;;;;;;28.30;13.80;;;;;;;-1.38;91.56;99791.75;5063782;28;20052;-61
2021/12/22 20:45:24;;;;;;;30.35;13.80;;;;;;;-1.44;91.09;99791.78;5084735;28;20059;-61
2021/12/22 20:48:09;;;;;;;28.95;14.27;;;;;;;-1.35;91.94;99789.19;5051124;28;20072;-61
2021/12/22 20:50:57;;;;;;;31.20;13.27;;;;;;;-1.69;91.98;99756.72;5059477;28;20052;-60
2021/12/22 20:53:43;;;;;;;36.22;16.05;;;;;;;-1.67;90.29;99775.56;5043716;28;20061;-60
2021/12/22 20:56:30;;;;;;;32.05;15.23;;;;;;;-1.85;90.88;99766.16;5044894;28;20051;-66
2021/12/22 20:59:19;;;;;;;29.63;12.43;;;;;;;-1.39;100.00;99760.03;5045792;28;20059;-62
2021/12/22 21:02:05;;;;;;;28.27;11.40;;;;;;;-0.96;99.80;99754.75;5051389;28;20044;-59
2021/12/22 21:04:51;;;;;;;27.13;13.50;;;;;;;-0.92;94.71;99767.59;5061092;28;20052;-64
2021/12/22 21:07:38;;;;;;;23.35;12.52;;;;;;;-1.02;93.82;99771.03;5049230;28;20064;-64
2021/12/22 21:10:25;;;;;;;30.20;14.25;;;;;;;-1.24;91.55;99766.84;5028350;28;20408;-62
2021/12/22 21:13:12;;;;;;;29.48;12.18;;;;;;;-1.24;93.33;99771.16;5028314;28;20061;-63
2021/12/22 21:16:00;;;;;;;28.48;14.02;;;;;;;-1.53;90.53;99754.94;5039992;28;20049;-62
2021/12/22 21:18:49;;;;;;;29.50;14.82;;;;;;;-1.81;88.58;99761.88;5047339;28;20061;-63
2021/12/22 21:21:37;;;;;;;33.88;13.73;;;;;;;-2.27;91.89;99756.75;5041171;28;20052;-62
2021/12/22 21:24:23;;;;;;;30.73;13.85;;;;;;;-1.83;91.00;99751.63;5041156;28;20044;-63
2021/12/22 21:27:08;;;;;;;28.98;13.88;;;;;;;-1.75;91.30;99739.56;5035313;28;20049;-62
2021/12/22 21:29:54;;;;;;;28.63;13.82;;;;;;;-1.76;91.38;99739.59;5035733;28;20053;-63
2021/12/22 21:32:40;;;;;;;29.15;14.45;;;;;;;-2.06;91.75;99738.78;5040045;28;20056;-62
2021/12/22 21:35:27;;;;;;;30.70;14.40;;;;;;;-2.42;90.71;99737.09;5035471;28;20057;-63
2021/12/22 21:38:13;;;;;;;33.42;15.93;;;;;;;-2.51;92.53;99739.63;5041168;28;20439;-62
2021/12/22 21:40:59;;;;;;;33.65;15.52;;;;;;;-2.63;92.85;99727.66;5035726;28;20416;-63
2021/12/22 21:43:45;;;;;;;29.05;15.50;;;;;;;-2.60;93.07;99725.09;5035575;28;20076;-62
2021/12/22 21:46:31;;;;;;;33.05;15.68;;;;;;;-2.42;92.65;99736.22;5054351;28;20068;-62
2021/12/22 21:49:18;;;;;;;30.17;14.30;;;;;;;-2.66;94.95;99728.50;5035218;28;20048;-62
2021/12/22 21:52:05;;;;;;;26.52;13.50;;;;;;;-2.29;93.33;99725.13;5035300;28;20052;-62
2021/12/22 21:54:51;;;;;;;28.73;14.10;;;;;;;-2.42;93.78;99725.97;5034031;28;20056;-62
2021/12/22 21:57:37;;;;;;;31.23;14.50;;;;;;;-2.68;92.96;99721.66;5035062;28;20056;-62
2021/12/22 22:00:23;;;;;;;33.25;15.55;;;;;;;-2.73;94.29;99717.41;5041382;28;20068;-61
2021/12/22 22:03:09;;;;;;;31.58;15.52;;;;;;;-2.88;94.52;99705.41;5035803;28;20515;-62
2021/12/22 22:05:55;;;;;;;31.45;16.23;;;;;;;-3.01;94.30;99706.22;5034177;28;20507;-62
2021/12/22 22:08:43;;;;;;;27.58;15.35;;;;;;;-2.97;96.30;99725.91;5035380;28;20484;-63
2021/12/22 22:11:29;;;;;;;33.22;16.60;;;;;;;-2.65;94.47;99725.09;5035307;28;20048;-62
2021/12/22 22:14:15;;;;;;;33.67;15.50;;;;;;;-2.68;95.28;99702.00;5025727;28;20057;-63
2021/12/22 22:17:01;;;;;;;34.67;16.63;;;;;;;-2.60;94.92;99718.28;5034833;28;20061;-63
2021/12/22 22:19:48;;;;;;;30.38;15.05;;;;;;;-2.43;95.10;99729.41;5034643;28;20056;-63
2021/12/22 22:22:34;;;;;;;32.53;15.70;;;;;;;-2.63;93.91;99707.97;5034672;28;20072;-62
2021/12/22 22:25:20;;;;;;;29.40;14.90;;;;;;;-2.62;94.52;99719.97;5034415;28;20052;-61
2021/12/22 22:28:06;;;;;;;34.15;16.27;;;;;;;-2.73;94.64;99713.97;5034752;28;20056;-62
2021/12/22 22:30:52;;;;;;;33.05;16.00;;;;;;;-2.50;94.15;99720.84;5033576;28;20052;-65
2021/12/22 22:33:37;;;;;;;35.20;16.88;;;;;;;-2.61;94.26;99719.09;5034343;28;20515;-63
2021/12/22 22:36:23;;;;;;;36.00;16.48;;;;;;;-2.44;92.96;99713.13;5039247;28;20400;-62
2021/12/22 22:39:09;;;;;;;34.35;16.77;;;;;;;-2.93;93.86;99686.56;5033345;28;20516;-63
2021/12/22 22:41:54;;;;;;;31.05;15.95;;;;;;;-2.69;94.48;99709.72;5034503;28;20061;-62
2021/12/22 22:44:40;;;;;;;33.10;16.80;;;;;;;-2.91;94.51;99705.41;5034180;28;20068;-62
2021/12/22 22:47:26;;;;;;;36.65;16.35;;;;;;;-2.98;96.00;99688.28;5033244;28;20057;-63
2021/12/22 22:50:12;;;;;;;37.85;16.98;;;;;;;-2.82;95.14;99691.72;5033893;28;20044;-63
2021/12/22 22:52:58;;;;;;;37.72;17.02;;;;;;;-2.82;94.97;99701.13;5033972;28;20500;-63
2021/12/22 22:55:44;;;;;;;41.00;18.92;;;;;;;-2.88;94.33;99687.44;5032739;28;20057;-63
2021/12/22 22:58:30;;;;;;;35.05;17.42;;;;;;;-3.00;95.02;99692.53;5032827;28;20056;-63
2021/12/22 23:01:16;;;;;;;37.47;17.40;;;;;;;-3.08;96.24;99694.25;5033928;28;20057;-63
2021/12/22 23:04:02;;;;;;;36.75;18.38;;;;;;;-3.02;94.79;99707.91;5033782;28;20052;-62
2021/12/22 23:06:48;;;;;;;40.35;18.17;;;;;;;-3.28;96.08;99695.88;5032829;28;20052;-63
2021/12/22 23:09:33;;;;;;;40.75;18.95;;;;;;;-3.39;95.78;99701.00;5038654;28;20048;-63
2021/12/22 23:12:19;;;;;;;37.78;17.55;;;;;;;-3.28;97.38;99692.50;5033984;28;20052;-63
2021/12/22 23:15:08;;;;;;;37.05;17.52;;;;;;;-3.37;96.84;99677.91;5038686;28;20056;-63
2021/12/22 23:18:09;;;;;;;36.00;18.13;;;;;;;-3.50;97.45;99677.03;5033620;28;20103;-62
2021/12/22 23:20:57;;;;;;;39.25;16.58;;;;;;;-3.42;97.90;99671.91;5033758;28;20060;-63
2021/12/22 23:23:42;;;;;;;35.97;17.95;;;;;;;-3.40;97.75;99681.34;5033640;28;20061;-62
2021/12/22 23:26:29;;;;;;;30.02;15.15;;;;;;;-2.98;95.84;99675.44;5034121;28;20052;-63
2021/12/22 23:29:15;;;;;;;35.25;17.30;;;;;;;-3.05;95.45;99669.44;5033978;28;20052;-62
2021/12/22 23:32:03;;;;;;;42.97;18.20;;;;;;;-3.20;94.43;99672.00;5038552;28;20384;-62
2021/12/22 23:34:49;;;;;;;38.15;16.88;;;;;;;-3.70;97.07;99649.63;5033606;28;20408;-63
2021/12/22 23:37:39;;;;;;;37.63;18.25;;;;;;;-3.37;96.37;99667.66;5018591;28;20049;-63
2021/12/22 23:40:33;;;;;;;42.45;17.73;;;;;;;-3.46;95.61;99650.56;5033476;28;20056;-63
2021/12/22 23:49:27;;;;;;;38.92;17.00;;;;;;;-3.07;96.31;99648.09;5032990;28;20432;-63
2021/12/22 23:52:13;;;;;;;40.70;19.75;;;;;;;-3.36;95.84;99642.03;5033376;28;20056;-65
2021/12/22 23:54:58;;;;;;;33.67;18.48;;;;;;;-3.34;97.34;99642.03;5031982;28;20064;-63
2021/12/22 23:57:44;;;;;;;39.90;17.45;;;;;;;-3.58;97.80;99620.63;5033190;28;20061;-63
